createdAt,value
2023-03-11T00:02:00.700Z,97968.41
2023-03-11T00:07:10.414Z,97966.72
2023-03-11T00:12:17.432Z,97954.94
2023-03-11T00:17:25.706Z,97964.75
2023-03-11T00:22:32.586Z,97962.44
2023-03-11T00:27:39.415Z,97958.09
2023-03-11T00:32:49.871Z,97959.13
2023-03-11T00:37:58.968Z,97955.97
2023-03-11T00:43:06.656Z,97952.16
2023-03-11T00:48:17.700Z,97947.56
2023-03-11T00:53:24.354Z,97935.91
2023-03-11T00:58:31.133Z,97939.56
2023-03-11T01:03:39.767Z,97926.34
2023-03-11T01:08:46.555Z,97926.50
2023-03-11T01:13:53.213Z,97925.03
2023-03-11T01:19:02.614Z,97916.50
2023-03-11T01:24:09.606Z,97923.78
2023-03-11T01:29:18.186Z,97913.72
2023-03-11T01:34:26.818Z,97919.94
2023-03-11T01:39:33.548Z,97923.72
2023-03-11T01:44:40.078Z,97932.44
2023-03-11T01:49:50.701Z,97928.47
2023-03-11T01:54:57.275Z,97928.81
2023-03-11T02:00:09.491Z,97920.38
2023-03-11T02:05:24.889Z,97915.63
2023-03-11T02:10:32.982Z,97914.94
2023-03-11T02:15:40.204Z,97907.44
2023-03-11T02:20:56.438Z,97907.72
2023-03-11T02:26:12.080Z,97899.50
2023-03-11T02:31:21.194Z,97892.06
2023-03-11T02:36:36.820Z,97901.81
2023-03-11T02:41:47.709Z,97907.09
2023-03-11T02:46:56.226Z,97904.06
2023-03-11T02:52:02.889Z,97907.56
2023-03-11T02:57:10.160Z,97892.41
2023-03-11T03:02:18.157Z,97894.78
2023-03-11T03:07:24.775Z,97896.41
2023-03-11T03:12:31.213Z,97892.91
2023-03-11T03:17:39.284Z,97887.13
2023-03-11T03:22:47.247Z,97893.16
2023-03-11T03:27:56.702Z,97892.34
2023-03-11T03:33:07.298Z,97884.66
2023-03-11T03:38:14.759Z,97888.34
2023-03-11T03:43:22.167Z,97884.84
2023-03-11T03:48:31.045Z,97885.28
2023-03-11T03:53:39.077Z,97883.38
2023-03-11T03:58:46.154Z,97884.22
2023-03-11T04:03:54.571Z,97884.25
2023-03-11T04:09:02.388Z,97884.25
2023-03-11T04:14:12.233Z,97881.81
2023-03-11T04:19:28.094Z,97881.75
2023-03-11T04:24:35.358Z,97879.16
2023-03-11T04:29:42.552Z,97870.78
2023-03-11T04:34:51.172Z,97875.94
2023-03-11T04:39:58.320Z,97873.22
2023-03-11T04:45:05.491Z,97871.16
2023-03-11T04:50:15.225Z,97871.66
2023-03-11T04:55:22.273Z,97875.53
2023-03-11T05:00:28.898Z,97875.31
2023-03-11T05:05:46.206Z,97870.56
2023-03-11T05:10:54.627Z,97874.91
2023-03-11T05:16:02.786Z,97870.00
2023-03-11T05:21:11.186Z,97868.03
2023-03-11T05:26:18.407Z,97874.84
2023-03-11T05:31:24.908Z,97881.81
2023-03-11T05:36:33.084Z,97878.47
2023-03-11T05:41:40.264Z,97879.16
2023-03-11T05:46:46.825Z,97881.53
2023-03-11T05:51:58.389Z,97885.88
2023-03-11T05:57:06.391Z,97884.91
2023-03-11T06:02:14.068Z,97883.84
2023-03-11T06:07:23.024Z,97892.16
2023-03-11T06:12:29.587Z,97890.75
2023-03-11T06:17:49.925Z,97898.09
2023-03-11T06:22:58.948Z,97899.50
2023-03-11T06:28:07.085Z,97899.19
2023-03-11T06:33:14.762Z,97912.41
2023-03-11T06:38:23.192Z,97913.91
2023-03-11T06:43:30.415Z,97908.38
2023-03-11T06:48:38.403Z,97915.94
2023-03-11T06:53:49.883Z,97924.31
2023-03-11T06:58:57.148Z,97925.00
2023-03-11T07:04:07.738Z,97924.09
2023-03-11T07:09:19.447Z,97923.19
2023-03-11T07:14:26.203Z,97929.91
2023-03-11T07:19:36.237Z,97940.03
2023-03-11T07:24:47.088Z,97940.66
2023-03-11T07:29:54.150Z,97950.81
2023-03-11T07:35:00.849Z,97963.72
2023-03-11T07:40:11.315Z,97970.50
2023-03-11T07:45:19.066Z,97979.00
2023-03-11T07:50:25.985Z,97973.91
2023-03-11T07:55:34.626Z,97987.69
2023-03-11T08:00:41.125Z,97992.19
2023-03-11T08:05:47.686Z,98000.00
2023-03-11T08:10:55.594Z,98001.84
2023-03-11T08:16:04.776Z,98012.53
2023-03-11T08:21:15.165Z,98029.88
2023-03-11T08:26:24.618Z,98046.66
2023-03-11T08:31:32.640Z,98059.44
2023-03-11T08:36:39.218Z,98074.94
2023-03-11T08:41:47.998Z,98097.44
2023-03-11T08:46:55.763Z,98111.66
2023-03-11T08:52:04.298Z,98132.81
2023-03-11T08:57:13.420Z,98146.88
2023-03-11T09:02:20.814Z,98155.91
2023-03-11T09:07:27.966Z,98189.28
2023-03-11T09:12:36.546Z,98207.91
2023-03-11T09:17:45.581Z,98217.38
2023-03-11T09:22:52.473Z,98229.06
2023-03-11T09:28:00.580Z,98242.47
2023-03-11T09:33:07.288Z,98260.53
2023-03-11T09:38:13.749Z,98275.31
2023-03-11T09:43:45.003Z,98272.25
2023-03-11T09:49:00.330Z,98288.19
2023-03-11T09:54:12.434Z,98298.66
2023-03-11T09:59:29.285Z,98325.94
2023-03-11T10:04:43.796Z,98338.91
2023-03-11T10:09:54.559Z,98354.81
2023-03-11T10:15:26.526Z,98355.78
2023-03-11T10:20:42.807Z,98380.34
2023-03-11T10:26:04.910Z,98395.53
2023-03-11T10:31:25.433Z,98416.41
2023-03-11T10:36:41.555Z,98426.88
2023-03-11T10:41:54.671Z,98446.22
2023-03-11T10:47:03.398Z,98455.72
2023-03-11T10:52:09.852Z,98459.53
2023-03-11T10:57:27.086Z,98475.75
2023-03-11T11:02:42.690Z,98491.91
2023-03-11T11:07:55.065Z,98501.66
2023-03-11T11:13:04.271Z,98496.94
2023-03-11T11:18:22.806Z,98511.75
2023-03-11T11:23:35.978Z,98522.09
2023-03-11T11:28:42.609Z,98535.88
2023-03-11T11:33:56.302Z,98555.06
2023-03-11T11:39:05.484Z,98562.88
2023-03-11T11:44:17.398Z,98585.94
2023-03-11T11:49:30.649Z,98586.97
2023-03-11T11:54:42.071Z,98598.94
2023-03-11T11:59:50.047Z,98607.69
2023-03-11T12:05:02.998Z,98627.69
2023-03-11T12:10:29.524Z,98638.13
2023-03-11T12:15:43.225Z,98665.53
2023-03-11T12:20:57.523Z,98672.63
2023-03-11T12:26:19.140Z,98695.03
2023-03-11T12:31:31.293Z,98701.16
2023-03-11T12:36:44.289Z,98721.66
2023-03-11T12:42:25.654Z,98732.97
2023-03-11T12:47:35.226Z,98742.47
2023-03-11T12:52:56.736Z,98755.81
2023-03-11T12:58:49.277Z,98770.66
2023-03-11T13:04:46.877Z,98793.00
2023-03-11T13:10:12.813Z,98815.25
2023-03-11T13:15:39.303Z,98836.72
2023-03-11T13:21:08.696Z,98847.09
2023-03-11T13:26:42.714Z,98858.38
2023-03-11T13:32:12.779Z,98886.78
2023-03-11T13:37:32.946Z,98892.00
2023-03-11T13:42:51.078Z,98912.56
2023-03-11T13:48:08.928Z,98934.09
2023-03-11T13:53:24.551Z,98939.16
2023-03-11T13:58:33.322Z,98961.41
2023-03-11T14:03:45.620Z,98959.66
2023-03-11T14:08:59.966Z,98978.50
2023-03-11T14:14:45.260Z,98994.78
2023-03-11T14:20:10.350Z,99017.84
2023-03-11T14:25:23.657Z,99024.72
2023-03-11T14:30:35.069Z,99038.41
2023-03-11T14:35:42.737Z,99035.00
2023-03-11T14:40:56.496Z,99041.88
2023-03-11T14:46:13.207Z,99053.03
2023-03-11T14:51:27.768Z,99063.28
2023-03-11T14:56:43.730Z,99079.56
2023-03-11T15:01:54.260Z,99083.84
2023-03-11T15:07:04.141Z,99106.09
2023-03-11T15:12:35.051Z,99118.94
2023-03-11T15:17:56.104Z,99129.25
2023-03-11T15:23:06.382Z,99136.16
2023-03-11T15:28:31.237Z,99148.16
2023-03-11T15:33:41.063Z,99156.72
2023-03-11T15:39:08.451Z,99166.22
2023-03-11T15:44:32.813Z,99178.25
2023-03-11T15:49:45.531Z,99192.84
2023-03-11T15:54:56.011Z,99216.00
2023-03-11T16:00:06.710Z,99229.69
2023-03-11T16:05:24.157Z,99240.00
2023-03-11T16:10:31.633Z,99251.13
2023-03-11T16:15:41.020Z,99263.16
2023-03-11T16:20:55.944Z,99259.66
2023-03-11T16:26:08.891Z,99273.41
2023-03-11T16:31:17.798Z,99293.06
2023-03-11T16:36:31.012Z,99304.19
2023-03-11T16:41:45.140Z,99316.22
2023-03-11T16:46:54.841Z,99328.22
2023-03-11T16:52:05.124Z,99335.06
2023-03-11T16:57:14.514Z,99341.97
2023-03-11T17:02:24.629Z,99351.38
2023-03-11T17:07:34.776Z,99363.38
2023-03-11T17:12:42.635Z,99369.34
2023-03-11T17:17:55.617Z,99381.34
2023-03-11T17:23:05.538Z,99392.47
2023-03-11T17:28:14.610Z,99404.50
2023-03-11T17:33:22.935Z,99415.69
2023-03-11T17:38:33.218Z,99414.81
2023-03-11T17:43:44.416Z,99418.25
2023-03-11T17:48:54.951Z,99436.22
2023-03-11T17:54:05.939Z,99458.47
2023-03-11T17:59:17.910Z,99459.38
2023-03-11T18:04:28.456Z,99479.06
2023-03-11T18:09:39.078Z,99485.94
2023-03-11T18:14:48.313Z,99495.31
2023-03-11T18:19:59.418Z,99510.75
2023-03-11T18:25:15.245Z,99515.88
2023-03-11T18:30:24.166Z,99528.72
2023-03-11T18:35:33.032Z,99533.88
2023-03-11T18:40:43.471Z,99538.16
2023-03-11T18:45:55.077Z,99545.00
2023-03-11T18:51:03.221Z,99562.13
2023-03-11T18:56:17.643Z,99562.97
2023-03-11T19:01:29.927Z,99572.38
2023-03-11T19:06:41.404Z,99576.69
2023-03-11T19:11:51.337Z,99588.66
2023-03-11T19:16:59.829Z,99594.66
2023-03-11T19:22:09.756Z,99600.63
2023-03-11T19:27:21.734Z,99604.91
2023-03-11T19:32:31.531Z,99622.03
2023-03-11T19:37:39.871Z,99629.72
2023-03-11T19:42:51.103Z,99625.44
2023-03-11T19:48:01.934Z,99641.69
2023-03-11T19:53:11.300Z,99644.22
2023-03-11T19:58:21.979Z,99660.50
2023-03-11T20:03:33.221Z,99663.06
2023-03-11T20:08:47.125Z,99663.06
2023-03-11T20:14:02.749Z,99664.75
2023-03-11T20:19:14.509Z,99666.47
2023-03-11T20:24:25.437Z,99668.19
2023-03-11T20:29:36.863Z,99674.16
2023-03-11T20:34:45.806Z,99671.59
2023-03-11T20:39:57.774Z,99686.13
2023-03-11T20:45:12.428Z,99692.09
2023-03-11T20:50:27.037Z,99698.13
2023-03-11T20:55:37.230Z,99692.97
2023-03-11T21:01:03.338Z,99691.25
2023-03-11T21:06:24.991Z,99700.66
2023-03-11T21:11:36.242Z,99703.22
2023-03-11T21:16:46.957Z,99705.78
2023-03-11T21:21:56.376Z,99711.75
2023-03-11T21:27:10.886Z,99723.75
2023-03-11T21:32:21.151Z,99720.31
2023-03-11T21:37:30.055Z,99730.56
2023-03-11T21:42:37.229Z,99730.56
2023-03-11T21:47:45.974Z,99735.69
2023-03-11T21:52:53.432Z,99726.28
2023-03-11T21:58:00.274Z,99735.72
2023-03-11T22:03:08.983Z,99739.94
2023-03-11T22:08:16.352Z,99741.66
2023-03-11T22:13:23.322Z,99755.34
2023-03-11T22:18:31.981Z,99750.19
2023-03-11T22:23:39.141Z,99760.50
2023-03-11T22:28:46.543Z,99764.75
2023-03-11T22:33:55.113Z,99769.84
2023-03-11T22:39:04.755Z,99764.72
2023-03-11T22:44:11.503Z,99768.13
2023-03-11T22:49:20.465Z,99772.41
2023-03-11T22:54:27.063Z,99776.66
2023-03-11T22:59:33.842Z,99778.34
2023-03-11T23:04:45.357Z,99780.91
2023-03-11T23:09:51.937Z,99783.41
2023-03-11T23:14:58.882Z,99782.56
2023-03-11T23:20:10.707Z,99792.81
2023-03-11T23:25:19.892Z,99786.81
2023-03-11T23:30:27.342Z,99783.38
2023-03-11T23:35:35.815Z,99785.13
2023-03-11T23:40:43.388Z,99777.41
2023-03-11T23:45:50.684Z,99772.31
2023-03-11T23:50:59.395Z,99779.97
2023-03-11T23:56:13.011Z,99791.91
